Time;durP1;ratioP1;P1;durP2;ratioP2;P2;SDS_P1;SDS_P2;PMS_P1;PMS_P2;Temp;Humidity;BMP_temperature;BMP_pressure;BME280_temperature;BME280_humidity;BME280_pressure;Samples;Min_cycle;Max_cycle;Signal;HPM_P1;HPM_P2
2021/09/23 00:00:19;;;;;;;2.40;1.90;;;21.10;52.30;;;;;;5035027;28;20395;-79
2021/09/23 00:05:15;;;;;;;2.20;1.95;;;21.10;52.30;;;;;;5034864;28;20410;-78
2021/09/23 00:07:42;;;;;;;2.40;1.90;;;21.10;52.40;;;;;;5034497;28;20419;-78
2021/09/23 00:10:10;;;;;;;2.10;1.80;;;21.00;52.40;;;;;;5034701;28;20391;-78
2021/09/23 00:12:37;;;;;;;1.80;1.60;;;21.00;52.50;;;;;;5034660;28;20476;-79
2021/09/23 00:15:05;;;;;;;2.22;1.77;;;21.00;52.30;;;;;;5034740;28;20396;-78
2021/09/23 00:17:30;;;;;;;2.30;1.83;;;21.10;52.50;;;;;;5034798;28;20395;-78
2021/09/23 00:19:57;;;;;;;2.03;1.70;;;21.10;52.50;;;;;;5034299;28;20406;-79
2021/09/23 00:22:22;;;;;;;2.40;1.67;;;21.00;52.40;;;;;;5034628;28;20800;-79
2021/09/23 00:24:48;;;;;;;2.10;1.77;;;21.10;52.50;;;;;;5033994;28;20445;-78
2021/09/23 00:27:14;;;;;;;2.07;1.70;;;21.00;52.30;;;;;;5034202;28;20745;-79
2021/09/23 00:29:39;;;;;;;2.38;1.70;;;21.10;52.50;;;;;;5034320;28;20386;-78
2021/09/23 00:32:05;;;;;;;2.20;1.80;;;21.10;52.30;;;;;;5034439;28;20437;-79
2021/09/23 00:34:31;;;;;;;2.80;1.60;;;21.10;52.30;;;;;;5034355;28;20399;-78
2021/09/23 00:36:57;;;;;;;2.10;1.73;;;21.00;52.30;;;;;;5034454;28;20444;-78
2021/09/23 00:39:23;;;;;;;2.20;1.80;;;21.00;52.30;;;;;;5033087;28;20438;-78
2021/09/23 00:41:50;;;;;;;1.83;1.60;;;21.00;52.30;;;;;;5033826;28;20399;-79
2021/09/23 00:44:18;;;;;;;1.98;1.60;;;21.00;52.30;;;;;;5034314;28;20991;-78
2021/09/23 00:46:46;;;;;;;2.80;1.70;;;21.00;52.20;;;;;;5033560;28;20976;-79
2021/09/23 00:49:12;;;;;;;2.40;1.80;;;21.00;52.20;;;;;;5034346;28;20399;-78
2021/09/23 00:51:38;;;;;;;2.37;1.77;;;21.00;52.20;;;;;;5033910;28;20394;-78
2021/09/23 00:54:04;;;;;;;2.17;1.80;;;21.00;52.20;;;;;;5034027;28;20402;-78
2021/09/23 00:56:30;;;;;;;1.90;1.52;;;21.00;52.20;;;;;;5032975;28;20461;-78
2021/09/23 00:58:57;;;;;;;1.87;1.50;;;21.00;52.20;;;;;;5032798;28;20399;-78
2021/09/23 01:01:23;;;;;;;2.22;1.80;;;21.00;52.20;;;;;;5033821;28;20406;-79
2021/09/23 01:03:48;;;;;;;2.95;1.67;;;21.00;52.20;;;;;;5033236;28;20509;-78
2021/09/23 01:06:14;;;;;;;2.40;1.70;;;21.00;52.20;;;;;;5033779;28;20482;-78
2021/09/23 01:08:40;;;;;;;2.00;1.48;;;21.00;52.10;;;;;;5033586;28;20422;-78
2021/09/23 01:11:06;;;;;;;1.90;1.50;;;21.00;52.30;;;;;;5032661;28;20402;-78
2021/09/23 01:13:32;;;;;;;2.70;1.85;;;20.90;52.20;;;;;;5032407;28;20761;-78
2021/09/23 01:15:58;;;;;;;1.80;1.53;;;20.90;52.10;;;;;;5031994;28;20399;-78
2021/09/23 01:18:24;;;;;;;1.95;1.60;;;20.90;52.10;;;;;;5033763;28;20760;-78
2021/09/23 01:20:50;;;;;;;1.97;1.70;;;20.90;52.00;;;;;;5032205;28;20407;-79
2021/09/23 01:23:16;;;;;;;2.00;1.60;;;20.90;52.30;;;;;;5032383;28;20428;-79
2021/09/23 01:25:42;;;;;;;1.95;1.70;;;20.90;52.20;;;;;;5032770;28;20872;-78
2021/09/23 01:28:09;;;;;;;2.08;1.70;;;20.90;52.10;;;;;;5032890;28;20387;-78
2021/09/23 01:30:35;;;;;;;1.95;1.63;;;20.90;52.10;;;;;;5033433;28;20379;-78
2021/09/23 01:33:01;;;;;;;2.00;1.70;;;20.90;52.10;;;;;;5033421;28;20395;-78
2021/09/23 01:35:26;;;;;;;1.70;1.50;;;20.90;52.00;;;;;;5033280;28;20376;-79
2021/09/23 01:37:52;;;;;;;1.95;1.55;;;20.90;52.20;;;;;;5032746;28;20400;-78
2021/09/23 01:40:18;;;;;;;2.27;1.77;;;20.90;52.20;;;;;;5033054;28;20387;-79
2021/09/23 01:42:44;;;;;;;1.85;1.50;;;20.90;52.00;;;;;;5032867;28;20452;-78
2021/09/23 01:45:12;;;;;;;2.10;1.65;;;20.90;52.00;;;;;;5033018;28;20474;-79
2021/09/23 01:47:39;;;;;;;2.10;1.70;;;20.90;52.10;;;;;;5033093;28;20755;-79
2021/09/23 01:50:06;;;;;;;2.20;1.60;;;20.90;52.00;;;;;;5032806;28;20780;-78
2021/09/23 01:52:31;;;;;;;1.88;1.50;;;20.90;51.90;;;;;;5032837;28;20394;-77
2021/09/23 01:54:57;;;;;;;1.80;1.50;;;20.90;51.90;;;;;;5032821;28;20387;-78
2021/09/23 01:57:22;;;;;;;2.33;1.50;;;20.90;51.90;;;;;;5032860;28;20893;-79
2021/09/23 01:59:48;;;;;;;1.60;1.50;;;20.90;51.90;;;;;;5032441;28;20459;-78
2021/09/23 02:02:14;;;;;;;1.90;1.50;;;20.90;51.90;;;;;;5032588;28;20447;-79
2021/09/23 02:04:39;;;;;;;2.20;1.70;;;20.90;51.90;;;;;;5033102;28;20403;-79
2021/09/23 02:07:05;;;;;;;2.53;1.60;;;20.90;51.80;;;;;;5031394;28;20418;-78
2021/09/23 02:09:32;;;;;;;3.47;1.80;;;20.90;51.90;;;;;;5032742;28;20440;-78
2021/09/23 02:12:00;;;;;;;2.35;1.50;;;20.90;51.90;;;;;;5032261;28;20387;-78
2021/09/23 02:14:26;;;;;;;1.92;1.60;;;20.90;52.10;;;;;;5031991;28;20391;-79
2021/09/23 02:16:52;;;;;;;1.98;1.50;;;20.90;51.80;;;;;;5032634;28;20757;-78
2021/09/23 02:19:17;;;;;;;1.80;1.47;;;20.90;51.90;;;;;;5032559;28;20395;-79
2021/09/23 02:21:43;;;;;;;2.10;1.60;;;20.80;51.90;;;;;;5032290;28;20437;-78
2021/09/23 02:24:09;;;;;;;2.50;1.50;;;20.90;51.90;;;;;;5032182;28;20396;-78
2021/09/23 02:26:34;;;;;;;2.17;1.67;;;20.80;51.70;;;;;;5032311;28;20419;-79
2021/09/23 02:29:00;;;;;;;1.70;1.40;;;20.80;52.00;;;;;;5032410;28;20425;-79
2021/09/23 02:31:26;;;;;;;2.03;1.65;;;20.80;51.80;;;;;;5032520;28;20410;-79
2021/09/23 02:33:51;;;;;;;1.80;1.50;;;20.80;51.80;;;;;;5032026;28;20756;-78
2021/09/23 02:36:17;;;;;;;1.77;1.42;;;20.80;51.80;;;;;;5032406;28;20394;-78
2021/09/23 02:38:43;;;;;;;1.85;1.35;;;20.80;51.90;;;;;;5032458;28;20396;-79
2021/09/23 02:41:08;;;;;;;1.77;1.55;;;20.80;51.70;;;;;;5032203;28;20445;-78
2021/09/23 02:43:35;;;;;;;2.00;1.47;;;20.80;51.90;;;;;;5031107;28;20447;-78
2021/09/23 02:46:01;;;;;;;1.75;1.42;;;20.80;51.90;;;;;;5031779;28;20387;-78
2021/09/23 02:48:27;;;;;;;1.80;1.47;;;20.80;51.60;;;;;;5031044;28;20414;-78
2021/09/23 02:50:52;;;;;;;1.90;1.50;;;20.80;51.80;;;;;;5032147;28;20402;-79
2021/09/23 02:53:18;;;;;;;2.00;1.30;;;20.80;51.70;;;;;;5031986;28;20401;-79
2021/09/23 02:55:44;;;;;;;2.00;1.30;;;20.80;51.60;;;;;;5031674;28;20485;-78
2021/09/23 02:58:09;;;;;;;1.93;1.50;;;20.80;52.00;;;;;;5031469;28;20395;-79
2021/09/23 03:00:35;;;;;;;1.63;1.30;;;20.80;51.90;;;;;;5031871;28;20891;-78
2021/09/23 03:03:01;;;;;;;1.77;1.40;;;20.80;51.80;;;;;;5031844;28;20504;-78
2021/09/23 03:05:27;;;;;;;1.70;1.30;;;20.80;51.80;;;;;;5031946;28;20384;-78
2021/09/23 03:07:52;;;;;;;1.92;1.38;;;20.80;51.70;;;;;;5031362;28;20826;-78
2021/09/23 03:10:18;;;;;;;1.80;1.30;;;20.70;51.60;;;;;;5031907;28;20477;-79
2021/09/23 03:12:44;;;;;;;1.90;1.40;;;20.80;51.60;;;;;;5030688;28;20781;-77
2021/09/23 03:15:10;;;;;;;1.73;1.40;;;20.80;51.60;;;;;;5032001;28;20387;-79
2021/09/23 03:17:35;;;;;;;1.50;1.20;;;20.80;51.80;;;;;;5031888;28;20893;-78
2021/09/23 03:20:01;;;;;;;2.00;1.50;;;20.70;51.50;;;;;;5030015;28;20390;-76
2021/09/23 03:22:27;;;;;;;1.85;1.30;;;20.70;51.50;;;;;;5031741;28;20498;-78
2021/09/23 03:24:53;;;;;;;1.88;1.30;;;20.70;51.80;;;;;;5032510;28;20387;-78
2021/09/23 03:27:19;;;;;;;1.75;1.30;;;20.70;51.90;;;;;;5035640;28;20417;-79
2021/09/23 03:29:45;;;;;;;1.90;1.40;;;20.70;51.70;;;;;;5035631;28;20458;-78
2021/09/23 03:32:10;;;;;;;1.60;1.40;;;20.70;51.60;;;;;;5035373;28;20387;-78
2021/09/23 03:34:36;;;;;;;1.75;1.30;;;20.70;51.60;;;;;;5035604;28;20389;-78
2021/09/23 03:37:02;;;;;;;1.87;1.33;;;20.70;51.60;;;;;;5035669;28;20757;-79
2021/09/23 03:39:28;;;;;;;2.00;1.40;;;20.70;51.70;;;;;;5034629;28;20812;-79
2021/09/23 03:41:54;;;;;;;1.70;1.20;;;20.70;51.60;;;;;;5034984;28;20868;-78
2021/09/23 03:44:19;;;;;;;1.80;1.60;;;20.70;51.70;;;;;;5035612;28;20464;-79
2021/09/23 03:46:45;;;;;;;1.70;1.35;;;20.70;51.50;;;;;;5035650;28;20391;-79
2021/09/23 03:49:11;;;;;;;1.93;1.40;;;20.70;51.70;;;;;;5034349;28;20449;-79
2021/09/23 03:51:36;;;;;;;1.63;1.20;;;20.70;51.60;;;;;;5035359;28;20388;-79
2021/09/23 03:54:02;;;;;;;1.50;1.40;;;20.70;51.60;;;;;;5035129;28;20426;-78
2021/09/23 03:56:28;;;;;;;1.70;1.50;;;20.70;51.80;;;;;;5035359;28;20391;-79
2021/09/23 03:58:54;;;;;;;2.10;1.60;;;20.70;51.50;;;;;;5035265;28;20398;-79
2021/09/23 04:01:20;;;;;;;1.77;1.47;;;20.70;51.60;;;;;;5035454;28;20394;-79
2021/09/23 04:03:45;;;;;;;1.98;1.33;;;20.70;51.70;;;;;;5034866;28;20425;-78
2021/09/23 04:06:11;;;;;;;1.47;1.23;;;20.70;51.50;;;;;;5034694;28;20744;-78
2021/09/23 04:08:37;;;;;;;1.38;1.20;;;20.70;51.40;;;;;;5035061;28;20411;-79
2021/09/23 04:11:03;;;;;;;1.30;1.10;;;20.70;51.80;;;;;;5035055;28;20497;-78
2021/09/23 04:13:28;;;;;;;1.50;1.10;;;20.70;51.60;;;;;;5034633;28;20422;-79
2021/09/23 04:15:54;;;;;;;1.63;1.30;;;20.70;51.40;;;;;;5034271;28;20399;-79
2021/09/23 04:18:20;;;;;;;1.53;1.10;;;20.70;51.50;;;;;;5034900;28;20387;-79
2021/09/23 04:20:47;;;;;;;1.95;1.20;;;20.70;51.70;;;;;;5034885;28;20470;-78
2021/09/23 04:23:13;;;;;;;1.88;1.50;;;20.70;51.40;;;;;;5034824;28;20488;-79
2021/09/23 04:25:40;;;;;;;1.60;1.40;;;20.70;51.60;;;;;;5034710;28;20448;-79
2021/09/23 04:28:06;;;;;;;1.70;1.38;;;20.70;51.30;;;;;;5033067;28;20928;-78
2021/09/23 04:30:32;;;;;;;2.00;1.40;;;20.70;51.70;;;;;;5033560;28;20395;-76
2021/09/23 04:32:59;;;;;;;1.60;1.30;;;20.70;51.50;;;;;;5033842;28;20756;-79
2021/09/23 04:35:26;;;;;;;1.60;1.30;;;20.70;51.70;;;;;;5034781;28;20391;-78
2021/09/23 04:37:51;;;;;;;1.73;1.30;;;20.70;51.30;;;;;;5033971;28;20885;-78
2021/09/23 04:40:17;;;;;;;1.60;1.30;;;20.60;51.50;;;;;;5034376;28;20384;-79
2021/09/23 04:42:43;;;;;;;1.50;1.20;;;20.70;51.70;;;;;;5034274;28;20419;-77
2021/09/23 04:45:10;;;;;;;1.35;1.25;;;20.70;51.80;;;;;;5034335;28;20395;-70
2021/09/23 04:47:36;;;;;;;1.90;1.30;;;20.60;51.50;;;;;;5034433;28;20481;-79
2021/09/23 04:50:04;;;;;;;1.40;1.10;;;20.60;51.60;;;;;;5033938;28;20387;-68
2021/09/23 04:52:30;;;;;;;1.55;1.23;;;20.60;51.40;;;;;;5034301;28;20896;-79
2021/09/23 04:54:55;;;;;;;1.60;1.30;;;20.60;51.90;;;;;;5034540;28;20387;-80
2021/09/23 04:57:21;;;;;;;1.58;1.23;;;20.60;51.40;;;;;;5034699;28;20804;-80
2021/09/23 04:59:47;;;;;;;3.80;1.40;;;20.60;51.40;;;;;;5034538;28;20395;-77
2021/09/23 05:02:12;;;;;;;6.30;1.70;;;20.70;51.90;;;;;;5034092;28;20940;-79
2021/09/23 05:04:38;;;;;;;6.43;1.63;;;20.70;52.40;;;;;;5034419;28;20481;-78
2021/09/23 05:07:04;;;;;;;5.68;1.50;;;20.80;52.20;;;;;;5033993;28;20486;-79
2021/09/23 05:09:30;;;;;;;3.67;1.47;;;20.80;52.10;;;;;;5034423;28;20478;-79
2021/09/23 05:11:57;;;;;;;2.92;1.30;;;20.70;52.10;;;;;;5033815;28;20449;-79
2021/09/23 05:14:23;;;;;;;4.20;1.40;;;20.70;52.20;;;;;;5033629;28;20927;-80
2021/09/23 05:16:48;;;;;;;6.15;1.50;;;20.70;52.20;;;;;;5034039;28;20407;-79
2021/09/23 05:19:14;;;;;;;2.60;1.40;;;20.70;52.10;;;;;;5033925;28;20396;-80
2021/09/23 05:21:41;;;;;;;3.58;1.33;;;20.70;52.20;;;;;;5033689;28;20395;-79
2021/09/23 05:24:09;;;;;;;2.70;1.80;;;20.70;52.20;;;;;;5033452;28;20942;-79
2021/09/23 05:26:35;;;;;;;3.45;1.50;;;20.70;52.10;;;;;;5033909;28;20876;-79
2021/09/23 05:29:00;;;;;;;2.60;1.40;;;20.70;52.20;;;;;;5033585;28;20486;-79
2021/09/23 05:31:26;;;;;;;1.93;1.30;;;20.70;52.10;;;;;;5033515;28;20383;-79
2021/09/23 05:33:52;;;;;;;2.10;1.30;;;20.60;52.20;;;;;;5033510;28;20400;-76
2021/09/23 05:36:17;;;;;;;3.13;1.50;;;20.70;52.30;;;;;;5034178;28;20396;-75
2021/09/23 05:38:43;;;;;;;2.40;1.38;;;20.80;52.40;;;;;;5033602;28;20399;-79
2021/09/23 05:41:09;;;;;;;3.43;1.50;;;20.80;52.30;;;;;;5033568;28;20398;-80
2021/09/23 05:43:35;;;;;;;3.78;1.67;;;20.90;52.60;;;;;;5032234;28;20403;-80
2021/09/23 05:46:00;;;;;;;3.60;1.70;;;20.90;52.40;;;;;;5033325;28;20742;-78
2021/09/23 05:48:27;;;;;;;3.20;1.47;;;20.90;53.30;;;;;;5031833;28;20395;-79
2021/09/23 05:50:53;;;;;;;2.78;1.50;;;20.80;52.70;;;;;;5034527;28;20391;-80
2021/09/23 05:53:19;;;;;;;4.57;1.50;;;20.90;53.70;;;;;;5033440;28;20395;-80
2021/09/23 05:55:45;;;;;;;3.60;1.40;;;20.90;53.00;;;;;;5033671;28;20515;-78
2021/09/23 05:58:11;;;;;;;2.65;1.40;;;20.80;52.60;;;;;;5033419;28;20761;-79
2021/09/23 06:00:37;;;;;;;4.10;1.45;;;20.80;52.40;;;;;;5033552;28;20386;-79
2021/09/23 06:03:02;;;;;;;2.50;1.45;;;20.80;52.40;;;;;;5033383;28;20916;-80
2021/09/23 06:05:28;;;;;;;2.50;1.40;;;20.90;52.00;;;;;;5033653;28;20469;-79
2021/09/23 06:07:53;;;;;;;3.60;1.47;;;20.80;51.80;;;;;;5033191;28;20423;-80
2021/09/23 06:10:20;;;;;;;2.25;1.40;;;20.80;51.70;;;;;;5033314;28;20391;-79
2021/09/23 06:12:46;;;;;;;2.67;1.35;;;20.90;51.80;;;;;;5033301;28;20392;-79
2021/09/23 06:15:12;;;;;;;2.80;1.48;;;20.80;51.60;;;;;;5033539;28;20390;-80
2021/09/23 06:17:39;;;;;;;2.25;1.42;;;20.80;51.70;;;;;;5033658;28;20422;-80
2021/09/23 06:20:06;;;;;;;3.00;1.38;;;20.80;51.90;;;;;;5034699;28;20398;-80
2021/09/23 06:22:32;;;;;;;2.90;1.50;;;20.80;51.90;;;;;;5032939;28;20411;-80
2021/09/23 06:24:57;;;;;;;3.65;1.60;;;20.80;52.00;;;;;;5033182;28;20385;-80
2021/09/23 06:27:23;;;;;;;3.30;1.50;;;20.80;51.90;;;;;;5033103;28;20809;-80
2021/09/23 06:29:48;;;;;;;2.20;1.50;;;20.80;51.70;;;;;;5033041;28;20390;-80
2021/09/23 06:32:14;;;;;;;2.47;1.40;;;20.80;51.60;;;;;;5032466;28;20395;-80
2021/09/23 06:34:40;;;;;;;2.47;1.60;;;20.80;51.70;;;;;;5032910;28;20423;-79
2021/09/23 06:37:06;;;;;;;2.10;1.40;;;20.80;51.40;;;;;;5032264;28;20414;-80
2021/09/23 06:39:31;;;;;;;2.17;1.23;;;20.80;51.60;;;;;;5032877;28;20749;-80
2021/09/23 06:41:58;;;;;;;2.67;1.23;;;20.80;51.60;;;;;;5032615;28;20383;-80
2021/09/23 06:44:25;;;;;;;2.70;1.40;;;20.80;51.60;;;;;;5032621;28;20399;-79
2021/09/23 06:46:50;;;;;;;2.97;1.60;;;20.70;51.80;;;;;;5032348;28;20399;-79
2021/09/23 06:49:16;;;;;;;2.28;1.40;;;20.70;51.90;;;;;;5032265;28;20395;-79
2021/09/23 06:51:43;;;;;;;6.03;1.70;;;20.70;52.10;;;;;;5032205;28;20383;-80
2021/09/23 06:54:09;;;;;;;3.83;1.45;;;20.70;52.50;;;;;;5031492;28;20391;-78
2021/09/23 06:56:35;;;;;;;4.57;1.70;;;20.70;52.40;;;;;;5032155;28;20395;-79
2021/09/23 06:59:01;;;;;;;4.40;1.57;;;20.80;52.60;;;;;;5032314;28;20410;-79
2021/09/23 07:01:27;;;;;;;5.45;1.65;;;20.70;52.00;;;;;;5031811;28;20387;-79
2021/09/23 07:03:53;;;;;;;5.40;1.70;;;20.70;52.10;;;;;;5031886;28;20407;-80
2021/09/23 07:06:18;;;;;;;2.90;1.30;;;20.80;52.00;;;;;;5030453;28;20938;-80
2021/09/23 07:08:44;;;;;;;4.85;1.40;;;20.80;51.90;;;;;;5032062;28;20928;-78
2021/09/23 07:11:09;;;;;;;5.47;1.65;;;20.70;51.80;;;;;;5031896;28;20470;-79
2021/09/23 07:13:35;;;;;;;4.03;1.50;;;20.70;51.80;;;;;;5032221;28;20875;-79
2021/09/23 07:16:01;;;;;;;4.95;1.40;;;20.80;52.00;;;;;;5031925;28;20470;-79
2021/09/23 07:18:27;;;;;;;2.93;1.40;;;20.70;51.90;;;;;;5031903;28;20956;-79
2021/09/23 07:20:53;;;;;;;3.50;1.48;;;20.80;51.80;;;;;;5032180;28;20387;-79
2021/09/23 07:23:19;;;;;;;2.58;1.23;;;20.80;51.80;;;;;;5032059;28;20420;-77
2021/09/23 07:25:44;;;;;;;2.30;1.35;;;20.80;51.90;;;;;;5032029;28;20387;-79
2021/09/23 07:28:15;;;;;;;3.90;1.40;;;20.80;51.80;;;;;;5031310;28;20410;-78
2021/09/23 07:30:41;;;;;;;2.28;1.48;;;20.80;51.90;;;;;;5031978;28;20462;-79
2021/09/23 07:33:07;;;;;;;2.90;1.60;;;20.80;51.80;;;;;;5031947;28;20495;-78
2021/09/23 07:35:34;;;;;;;2.37;1.30;;;20.80;51.80;;;;;;5032069;28;20411;-79
2021/09/23 07:38:03;;;;;;;2.30;1.38;;;20.90;52.00;;;;;;5032210;28;20399;-80
2021/09/23 07:40:29;;;;;;;2.03;1.35;;;20.80;51.90;;;;;;5031978;28;20384;-79
2021/09/23 07:42:55;;;;;;;2.17;1.30;;;20.80;51.90;;;;;;5031898;28;20422;-79
2021/09/23 07:45:21;;;;;;;2.13;1.30;;;20.90;52.00;;;;;;5031889;28;20723;-79
2021/09/23 07:47:47;;;;;;;1.77;1.40;;;20.80;51.90;;;;;;5031810;28;20401;-79
2021/09/23 07:50:12;;;;;;;2.15;1.40;;;20.90;51.80;;;;;;5031424;28;20393;-78
2021/09/23 07:52:38;;;;;;;2.60;1.63;;;20.90;51.90;;;;;;5031877;28;20394;-79
2021/09/23 07:55:05;;;;;;;2.50;1.20;;;20.90;51.80;;;;;;5031669;28;20749;-79
2021/09/23 07:57:31;;;;;;;2.58;1.33;;;20.90;51.80;;;;;;5031901;28;20453;-79
2021/09/23 07:59:57;;;;;;;2.25;1.27;;;21.00;51.90;;;;;;5030344;28;20889;-79
2021/09/23 08:02:22;;;;;;;2.33;1.40;;;20.90;51.70;;;;;;5031219;28;20481;-79
2021/09/23 08:04:48;;;;;;;2.28;1.30;;;20.90;52.40;;;;;;5031472;28;20403;-79
2021/09/23 08:07:17;;;;;;;2.30;1.33;;;20.90;51.70;;;;;;5030991;28;20438;-79
2021/09/23 08:09:48;;;;;;;2.20;1.40;;;21.00;51.80;;;;;;5031714;28;20402;-78
2021/09/23 08:12:14;;;;;;;3.20;1.60;;;21.00;51.70;;;;;;5032052;28;20864;-79
2021/09/23 08:14:40;;;;;;;3.92;1.70;;;21.00;51.60;;;;;;5034171;28;20399;-79
2021/09/23 08:17:06;;;;;;;4.32;1.83;;;21.00;51.40;;;;;;5033619;28;20478;-79
2021/09/23 08:19:35;;;;;;;5.73;1.60;;;21.00;51.40;;;;;;5033060;28;20429;-79
2021/09/23 08:22:02;;;;;;;6.40;2.05;;;21.00;51.30;;;;;;5034561;28;20394;-80
2021/09/23 08:24:28;;;;;;;4.90;1.95;;;21.00;51.10;;;;;;5033956;28;20399;-80
2021/09/23 08:26:53;;;;;;;5.18;1.92;;;21.00;51.30;;;;;;5035107;28;20453;-79
2021/09/23 08:29:19;;;;;;;6.07;2.10;;;21.10;51.20;;;;;;5034208;28;20399;-80
2021/09/23 08:31:45;;;;;;;7.70;2.13;;;21.20;51.20;;;;;;5034962;28;20388;-79
2021/09/23 08:34:12;;;;;;;5.53;1.90;;;21.20;51.30;;;;;;5032944;28;20395;-80
2021/09/23 08:36:38;;;;;;;7.70;2.03;;;21.20;51.80;;;;;;5033544;28;20474;-80
2021/09/23 08:39:04;;;;;;;10.43;2.10;;;21.20;52.10;;;;;;5034778;28;20473;-80
2021/09/23 08:41:30;;;;;;;7.97;2.15;;;21.20;51.80;;;;;;5034724;28;20453;-80
2021/09/23 08:43:59;;;;;;;7.28;1.80;;;21.20;51.90;;;;;;5033352;28;20419;-79
2021/09/23 08:46:27;;;;;;;7.07;2.08;;;21.20;52.00;;;;;;5034710;28;20478;-79
2021/09/23 08:48:52;;;;;;;4.65;1.90;;;21.30;52.20;;;;;;5033522;28;20493;-79
2021/09/23 08:51:19;;;;;;;5.00;1.90;;;21.20;52.00;;;;;;5033441;28;20415;-79
2021/09/23 08:53:44;;;;;;;8.30;2.28;;;21.20;52.00;;;;;;5033469;28;20422;-79
2021/09/23 08:56:12;;;;;;;5.50;1.80;;;21.30;52.00;;;;;;5033068;28;20757;-79
2021/09/23 08:58:39;;;;;;;8.25;1.90;;;21.30;52.00;;;;;;5034426;28;20441;-79
2021/09/23 09:01:07;;;;;;;5.00;2.38;;;21.30;52.10;;;;;;5033004;28;20889;-80
2021/09/23 09:03:34;;;;;;;8.80;2.00;;;21.30;52.20;;;;;;5034304;28;20418;-79
2021/09/23 09:06:04;;;;;;;4.13;2.03;;;21.30;52.20;;;;;;5034027;28;20874;-77
2021/09/23 09:08:32;;;;;;;5.40;1.88;;;21.30;52.00;;;;;;5032752;28;20423;-79
2021/09/23 09:11:00;;;;;;;5.97;1.95;;;21.30;52.20;;;;;;5033306;28;20754;-80
2021/09/23 09:13:34;;;;;;;4.35;1.80;;;21.30;51.90;;;;;;5034110;28;20387;-79
2021/09/23 09:16:07;;;;;;;6.20;1.93;;;21.30;52.00;;;;;;5033854;28;20440;-69
2021/09/23 09:18:32;;;;;;;6.40;1.90;;;21.30;52.70;;;;;;5033172;28;20413;-80
2021/09/23 09:21:11;;;;;;;7.07;1.90;;;21.30;52.20;;;;;;5032822;28;20403;-79
2021/09/23 09:23:47;;;;;;;9.05;1.92;;;21.30;52.30;;;;;;5033361;28;20415;-79
2021/09/23 09:26:37;;;;;;;6.72;2.15;;;21.30;52.30;;;;;;5033564;28;20379;-79
2021/09/23 09:29:05;;;;;;;7.15;1.85;;;21.30;52.30;;;;;;5032315;28;20434;-79
2021/09/23 09:31:32;;;;;;;7.55;2.10;;;21.40;52.10;;;;;;5033274;28;20416;-79
2021/09/23 09:34:00;;;;;;;10.50;2.30;;;21.40;52.20;;;;;;5033582;28;20399;-79
2021/09/23 09:36:38;;;;;;;10.20;2.00;;;21.40;52.40;;;;;;5031738;28;20398;-78
2021/09/23 09:39:06;;;;;;;7.70;2.22;;;21.40;52.60;;;;;;5031819;28;20407;-78
2021/09/23 09:41:35;;;;;;;6.93;1.90;;;21.40;52.60;;;;;;5032276;28;20485;-79
2021/09/23 09:44:03;;;;;;;7.55;2.20;;;21.40;52.50;;;;;;5034011;28;20915;-70
2021/09/23 09:46:35;;;;;;;7.83;2.00;;;21.40;52.60;;;;;;5032761;28;20391;-78
2021/09/23 09:49:01;;;;;;;8.77;2.10;;;21.40;52.90;;;;;;5032779;28;20490;-78
2021/09/23 09:51:39;;;;;;;8.90;2.17;;;21.40;52.80;;;;;;5031649;28;20391;-78
2021/09/23 09:54:06;;;;;;;11.05;1.95;;;21.50;53.20;;;;;;5031543;28;20395;-79
2021/09/23 09:56:32;;;;;;;9.32;2.10;;;21.50;53.30;;;;;;5034012;28;20394;-80
2021/09/23 09:59:13;;;;;;;15.85;2.40;;;21.50;53.30;;;;;;5033157;28;20486;-79
2021/09/23 10:01:41;;;;;;;14.55;2.15;;;21.50;53.40;;;;;;5032999;28;20422;-80
2021/09/23 10:04:07;;;;;;;13.48;2.55;;;21.60;53.50;;;;;;5032716;28;20419;-79
2021/09/23 10:06:33;;;;;;;12.10;2.55;;;21.60;53.40;;;;;;5032733;28;20437;-79
2021/09/23 10:08:59;;;;;;;10.10;2.10;;;21.60;53.60;;;;;;5031718;28;20825;-78
2021/09/23 10:11:25;;;;;;;11.30;2.30;;;21.60;53.50;;;;;;5032771;28;20415;-80
2021/09/23 10:13:53;;;;;;;8.45;2.33;;;21.60;53.10;;;;;;5031674;28;20815;-80
2021/09/23 10:16:20;;;;;;;12.43;2.45;;;21.60;53.40;;;;;;5032104;28;20399;-80
2021/09/23 10:18:47;;;;;;;11.05;2.47;;;21.60;53.20;;;;;;5032670;28;20826;-79
2021/09/23 10:21:13;;;;;;;12.43;2.53;;;21.60;53.20;;;;;;5032781;28;20885;-79
2021/09/23 10:23:40;;;;;;;12.50;2.90;;;21.70;53.40;;;;;;5032481;28;20452;-79
2021/09/23 10:26:08;;;;;;;16.58;2.55;;;21.60;53.30;;;;;;5032044;28;20868;-78
2021/09/23 10:28:35;;;;;;;16.10;3.17;;;21.70;53.40;;;;;;5032386;28;20577;-77
2021/09/23 10:31:04;;;;;;;13.32;2.88;;;21.60;53.30;;;;;;5032287;28;20383;-79
2021/09/23 10:33:30;;;;;;;14.77;3.03;;;21.60;53.20;;;;;;5031371;28;20430;-80
2021/09/23 10:35:56;;;;;;;14.38;2.90;;;21.70;53.40;;;;;;5031767;28;20478;-78
2021/09/23 10:38:23;;;;;;;17.45;3.10;;;21.60;53.40;;;;;;5031571;28;20896;-79
2021/09/23 10:40:49;;;;;;;18.60;3.13;;;21.60;53.40;;;;;;5032227;28;20383;-79
2021/09/23 10:43:17;;;;;;;14.57;3.10;;;21.60;53.80;;;;;;5031992;28;20496;-79
2021/09/23 10:45:43;;;;;;;16.13;3.20;;;21.60;53.70;;;;;;5032305;28;20395;-76
2021/09/23 10:48:10;;;;;;;21.88;3.55;;;21.60;53.80;;;;;;5031635;28;20394;-75
2021/09/23 10:50:38;;;;;;;18.53;3.03;;;21.60;53.70;;;;;;5032096;28;20395;-79
2021/09/23 10:53:07;;;;;;;17.48;3.05;;;21.60;53.50;;;;;;5032092;28;20398;-79
2021/09/23 10:55:37;;;;;;;13.93;3.00;;;21.60;53.70;;;;;;5031879;28;20379;-80
2021/09/23 10:58:05;;;;;;;14.18;2.90;;;21.60;53.60;;;;;;5032225;28;20395;-79
2021/09/23 11:00:33;;;;;;;13.57;2.90;;;21.70;53.50;;;;;;5031831;28;20895;-79
2021/09/23 11:03:04;;;;;;;16.25;2.70;;;21.70;53.40;;;;;;5031899;28;20513;-78
2021/09/23 11:05:30;;;;;;;10.65;2.20;;;21.70;53.30;;;;;;5030892;28;20818;-79
2021/09/23 11:07:59;;;;;;;14.07;2.70;;;21.70;52.90;;;;;;5031993;28;20509;-79
2021/09/23 11:10:26;;;;;;;13.30;2.90;;;21.70;52.60;;;;;;5031276;28;20395;-79
2021/09/23 11:12:57;;;;;;;11.45;2.45;;;21.70;52.50;;;;;;5031838;28;20893;-79
2021/09/23 11:15:29;;;;;;;10.73;2.38;;;21.80;52.40;;;;;;5030858;28;20463;-79
2021/09/23 11:17:58;;;;;;;11.88;3.10;;;21.80;52.00;;;;;;5031735;28;20804;-79
2021/09/23 11:20:29;;;;;;;10.80;2.90;;;21.80;52.10;;;;;;5030180;28;20403;-80
2021/09/23 11:23:04;;;;;;;11.85;3.58;;;21.90;52.00;;;;;;5031702;28;20414;-79
2021/09/23 11:25:33;;;;;;;11.00;3.45;;;21.90;51.90;;;;;;5031996;28;20394;-79
2021/09/23 11:28:00;;;;;;;10.20;3.13;;;22.00;51.70;;;;;;5032013;28;20379;-78
2021/09/23 11:30:29;;;;;;;10.55;3.15;;;22.10;51.50;;;;;;5031598;28;20949;-79
2021/09/23 11:33:04;;;;;;;10.88;4.20;;;22.20;51.20;;;;;;5030392;28;20394;-79
2021/09/23 11:35:37;;;;;;;21.08;4.18;;;22.40;51.00;;;;;;5031497;28;20383;-79
2021/09/23 11:38:03;;;;;;;15.38;3.70;;;22.50;50.70;;;;;;5031494;28;20866;-77
2021/09/23 11:40:32;;;;;;;15.82;3.78;;;22.40;50.90;;;;;;5030963;28;20482;-78
2021/09/23 11:43:00;;;;;;;25.17;4.03;;;22.50;51.60;;;;;;5031250;28;20403;-78
2021/09/23 11:45:29;;;;;;;26.02;4.00;;;22.50;52.30;;;;;;5031079;28;20412;-79
2021/09/23 11:47:59;;;;;;;23.53;4.43;;;22.60;52.60;;;;;;5033770;28;20391;-79
2021/09/23 11:50:37;;;;;;;21.10;4.18;;;22.70;53.60;;;;;;5034801;28;20426;-79
2021/09/23 11:53:08;;;;;;;18.90;3.85;;;22.80;55.00;;;;;;5035139;28;20387;-79
2021/09/23 11:55:35;;;;;;;19.87;3.80;;;22.90;55.40;;;;;;5035322;28;20400;-78
2021/09/23 11:58:13;;;;;;;19.75;3.90;;;22.90;55.70;;;;;;5033620;28;20394;-77
2021/09/23 12:00:45;;;;;;;13.15;3.90;;;23.10;58.70;;;;;;5033494;28;20399;-78
2021/09/23 12:03:13;;;;;;;11.63;3.45;;;23.30;59.00;;;;;;5034734;28;20427;-78
2021/09/23 12:05:39;;;;;;;12.38;2.90;;;23.30;58.70;;;;;;5034697;28;20928;-78
2021/09/23 12:08:16;;;;;;;10.43;3.20;;;23.40;57.80;;;;;;5034437;28;20415;-73
2021/09/23 12:11:03;;;;;;;10.35;3.60;;;23.40;57.10;;;;;;5033467;28;20395;-78
2021/09/23 12:13:38;;;;;;;7.63;2.85;;;23.70;57.50;;;;;;5036115;28;20765;-75
2021/09/23 12:16:12;;;;;;;8.23;2.90;;;24.00;54.40;;;;;;5033502;28;20395;-80
2021/09/23 12:18:39;;;;;;;8.82;2.47;;;24.00;52.80;;;;;;5034914;28;20396;-78
2021/09/23 12:21:09;;;;;;;10.25;2.33;;;24.00;53.00;;;;;;5033189;28;20399;-77
2021/09/23 12:23:39;;;;;;;5.63;2.47;;;23.80;52.90;;;;;;5034548;28;20419;-77
2021/09/23 12:26:16;;;;;;;5.40;2.00;;;23.80;52.70;;;;;;5034492;28;20759;-78
2021/09/23 12:28:47;;;;;;;4.53;1.73;;;23.70;53.50;;;;;;5034503;28;20478;-78
2021/09/23 12:31:15;;;;;;;6.43;2.05;;;23.60;53.80;;;;;;5033023;28;20396;-79
2021/09/23 12:33:54;;;;;;;6.43;2.00;;;23.50;52.60;;;;;;5033102;28;20426;-78
2021/09/23 12:36:28;;;;;;;5.40;2.00;;;23.40;52.50;;;;;;5033548;28;20375;-79
2021/09/23 12:39:19;;;;;;;4.97;1.90;;;23.40;52.20;;;;;;5016994;28;20402;-80
2021/09/23 12:41:51;;;;;;;7.28;2.10;;;23.40;51.70;;;;;;5034286;28;20445;-79
2021/09/23 12:44:20;;;;;;;3.00;1.80;;;23.40;51.80;;;;;;5032673;28;20444;-80
2021/09/23 12:47:05;;;;;;;5.20;1.90;;;23.40;51.50;;;;;;5034185;28;20376;-78